sensor_id;sensor_type;location;lat;lon;timestamp;pressure;altitude;pressure_sealevel;temperature;humidity
4449;BME280;2237;51.870;6.160;2023-05-12T05:15:13;101457.31;;;15.59;100.00
4449;BME280;2237;51.870;6.160;2023-05-12T05:17:39;101455.44;;;15.62;100.00
4449;BME280;2237;51.870;6.160;2023-05-12T05:20:08;101461.06;;;15.78;100.00
4449;BME280;2237;51.870;6.160;2023-05-12T05:22:43;101449.31;;;15.88;100.00
4449;BME280;2237;51.870;6.160;2023-05-12T05:25:10;101469.53;;;15.86;100.00
4449;BME280;2237;51.870;6.160;2023-05-12T05:27:37;101471.16;;;15.90;100.00
4449;BME280;2237;51.870;6.160;2023-05-12T05:30:07;101473.41;;;16.01;100.00
4449;BME280;2237;51.870;6.160;2023-05-12T05:32:35;101471.47;;;16.06;100.00
4449;BME280;2237;51.870;6.160;2023-05-12T05:35:02;101486.44;;;16.04;100.00
4449;BME280;2237;51.870;6.160;2023-05-12T05:37:28;101477.47;;;16.09;100.00
4449;BME280;2237;51.870;6.160;2023-05-12T05:39:55;101475.31;;;16.20;100.00
4449;BME280;2237;51.870;6.160;2023-05-12T05:42:21;101489.22;;;16.24;100.00
4449;BME280;2237;51.870;6.160;2023-05-12T05:44:48;101486.78;;;16.19;100.00
4449;BME280;2237;51.870;6.160;2023-05-12T05:47:14;101494.00;;;16.37;100.00
4449;BME280;2237;51.870;6.160;2023-05-12T05:49:40;101496.63;;;16.37;100.00
4449;BME280;2237;51.870;6.160;2023-05-12T05:52:07;101504.97;;;16.49;100.00
4449;BME280;2237;51.870;6.160;2023-05-12T05:54:33;101506.81;;;16.47;100.00
4449;BME280;2237;51.870;6.160;2023-05-12T05:57:00;101512.06;;;16.47;100.00
4449;BME280;2237;51.870;6.160;2023-05-12T05:59:28;101504.19;;;16.47;100.00
4449;BME280;2237;51.870;6.160;2023-05-12T06:01:54;101511.97;;;16.50;100.00
4449;BME280;2237;51.870;6.160;2023-05-12T06:04:20;101516.97;;;16.57;100.00
4449;BME280;2237;51.870;6.160;2023-05-12T06:06:47;101514.19;;;16.62;100.00
4449;BME280;2237;51.870;6.160;2023-05-12T06:09:13;101513.19;;;16.66;100.00
4449;BME280;2237;51.870;6.160;2023-05-12T06:11:40;101513.63;;;16.77;100.00
4449;BME280;2237;51.870;6.160;2023-05-12T06:14:07;101523.34;;;16.75;100.00
4449;BME280;2237;51.870;6.160;2023-05-12T06:16:33;101526.94;;;16.72;100.00
4449;BME280;2237;51.870;6.160;2023-05-12T06:19:00;101528.97;;;16.66;100.00
4449;BME280;2237;51.870;6.160;2023-05-12T06:21:26;101532.59;;;16.62;100.00
4449;BME280;2237;51.870;6.160;2023-05-12T06:23:52;101545.25;;;16.75;100.00
4449;BME280;2237;51.870;6.160;2023-05-12T06:26:21;101544.34;;;16.76;100.00
4449;BME280;2237;51.870;6.160;2023-05-12T06:28:47;101548.28;;;16.88;100.00
4449;BME280;2237;51.870;6.160;2023-05-12T06:31:13;101552.66;;;16.89;100.00
4449;BME280;2237;51.870;6.160;2023-05-12T06:33:40;101551.28;;;17.02;100.00
4449;BME280;2237;51.870;6.160;2023-05-12T06:36:06;101550.47;;;17.00;100.00
4449;BME280;2237;51.870;6.160;2023-05-12T06:38:33;101546.34;;;17.16;100.00
4449;BME280;2237;51.870;6.160;2023-05-12T06:41:00;101553.69;;;17.30;100.00
4449;BME280;2237;51.870;6.160;2023-05-12T06:43:26;101558.13;;;17.29;100.00
4449;BME280;2237;51.870;6.160;2023-05-12T06:45:52;101554.44;;;17.33;100.00
4449;BME280;2237;51.870;6.160;2023-05-12T06:48:19;101546.63;;;17.32;100.00
4449;BME280;2237;51.870;6.160;2023-05-12T06:50:45;101565.59;;;17.40;100.00
4449;BME280;2237;51.870;6.160;2023-05-12T06:53:12;101566.25;;;17.46;100.00
4449;BME280;2237;51.870;6.160;2023-05-12T06:55:38;101572.09;;;17.53;100.00
4449;BME280;2237;51.870;6.160;2023-05-12T06:58:05;101565.72;;;17.60;100.00
4449;BME280;2237;51.870;6.160;2023-05-12T07:00:32;101579.63;;;17.64;100.00
4449;BME280;2237;51.870;6.160;2023-05-12T07:02:58;101579.19;;;17.74;100.00
4449;BME280;2237;51.870;6.160;2023-05-12T07:05:25;101582.22;;;17.87;100.00
4449;BME280;2237;51.870;6.160;2023-05-12T07:07:51;101577.19;;;17.81;100.00
4449;BME280;2237;51.870;6.160;2023-05-12T07:10:17;101581.03;;;17.94;100.00
4449;BME280;2237;51.870;6.160;2023-05-12T07:12:46;101577.03;;;18.05;100.00
4449;BME280;2237;51.870;6.160;2023-05-12T07:15:12;101569.56;;;18.17;100.00
4449;BME280;2237;51.870;6.160;2023-05-12T07:17:38;101573.47;;;18.28;100.00
4449;BME280;2237;51.870;6.160;2023-05-12T07:20:05;101587.94;;;18.18;100.00
4449;BME280;2237;51.870;6.160;2023-05-12T07:22:32;101576.41;;;18.21;100.00
4449;BME280;2237;51.870;6.160;2023-05-12T07:24:58;101582.63;;;18.20;100.00
4449;BME280;2237;51.870;6.160;2023-05-12T07:27:25;101580.44;;;18.29;100.00
4449;BME280;2237;51.870;6.160;2023-05-12T07:29:51;101582.06;;;18.32;100.00
4449;BME280;2237;51.870;6.160;2023-05-12T07:32:18;101578.41;;;18.36;100.00
4449;BME280;2237;51.870;6.160;2023-05-12T07:34:44;101578.59;;;18.31;100.00
4449;BME280;2237;51.870;6.160;2023-05-12T07:37:10;101578.91;;;18.44;100.00
4449;BME280;2237;51.870;6.160;2023-05-12T07:39:37;101584.53;;;18.36;100.00
4449;BME280;2237;51.870;6.160;2023-05-12T07:42:04;101579.44;;;18.32;100.00
4449;BME280;2237;51.870;6.160;2023-05-12T07:44:30;101583.19;;;18.46;100.00
4449;BME280;2237;51.870;6.160;2023-05-12T07:46:58;101588.25;;;18.52;100.00
4449;BME280;2237;51.870;6.160;2023-05-12T07:49:24;101578.19;;;18.40;100.00
4449;BME280;2237;51.870;6.160;2023-05-12T07:51:51;101586.53;;;18.31;100.00
4449;BME280;2237;51.870;6.160;2023-05-12T07:54:17;101579.59;;;18.49;100.00
4449;BME280;2237;51.870;6.160;2023-05-12T07:56:43;101581.94;;;18.35;100.00
4449;BME280;2237;51.870;6.160;2023-05-12T07:59:10;101584.44;;;18.38;100.00
4449;BME280;2237;51.870;6.160;2023-05-12T08:01:38;101587.69;;;18.44;100.00
4449;BME280;2237;51.870;6.160;2023-05-12T08:04:04;101583.16;;;18.48;100.00
4449;BME280;2237;51.870;6.160;2023-05-12T08:06:32;101594.34;;;18.75;100.00
4449;BME280;2237;51.870;6.160;2023-05-12T08:08:58;101589.22;;;18.90;100.00
4449;BME280;2237;51.870;6.160;2023-05-12T08:11:25;101597.59;;;19.00;100.00
4449;BME280;2237;51.870;6.160;2023-05-12T08:13:52;101598.09;;;19.08;100.00
4449;BME280;2237;51.870;6.160;2023-05-12T08:16:18;101590.53;;;19.19;100.00
4449;BME280;2237;51.870;6.160;2023-05-12T08:18:45;101603.03;;;19.34;100.00
4449;BME280;2237;51.870;6.160;2023-05-12T08:21:11;101596.13;;;19.32;100.00
4449;BME280;2237;51.870;6.160;2023-05-12T08:23:38;101604.00;;;19.13;100.00
4449;BME280;2237;51.870;6.160;2023-05-12T08:26:04;101608.94;;;19.41;100.00
4449;BME280;2237;51.870;6.160;2023-05-12T08:28:31;101608.56;;;19.67;100.00
4449;BME280;2237;51.870;6.160;2023-05-12T08:30:57;101608.97;;;19.77;100.00
4449;BME280;2237;51.870;6.160;2023-05-12T08:33:24;101624.66;;;19.98;100.00
4449;BME280;2237;51.870;6.160;2023-05-12T08:35:51;101612.97;;;20.21;100.00
4449;BME280;2237;51.870;6.160;2023-05-12T08:38:17;101622.97;;;20.33;100.00
4449;BME280;2237;51.870;6.160;2023-05-12T08:40:56;101626.16;;;20.57;100.00
4449;BME280;2237;51.870;6.160;2023-05-12T08:43:36;101630.28;;;20.45;100.00
4449;BME280;2237;51.870;6.160;2023-05-12T08:46:04;101627.78;;;20.76;100.00
4449;BME280;2237;51.870;6.160;2023-05-12T08:48:32;101631.97;;;20.98;100.00
4449;BME280;2237;51.870;6.160;2023-05-12T08:51:00;101637.66;;;20.90;100.00
4449;BME280;2237;51.870;6.160;2023-05-12T08:53:28;101637.66;;;20.90;100.00
4449;BME280;2237;51.870;6.160;2023-05-12T08:55:55;101641.94;;;20.93;100.00
4449;BME280;2237;51.870;6.160;2023-05-12T08:58:43;101645.88;;;20.68;100.00
4449;BME280;2237;51.870;6.160;2023-05-12T09:01:10;101640.56;;;20.51;100.00
4449;BME280;2237;51.870;6.160;2023-05-12T09:03:37;101639.81;;;20.66;100.00
4449;BME280;2237;51.870;6.160;2023-05-12T09:06:05;101648.25;;;20.73;100.00
4449;BME280;2237;51.870;6.160;2023-05-12T09:08:32;101655.53;;;20.87;100.00
4449;BME280;2237;51.870;6.160;2023-05-12T09:11:00;101667.59;;;20.75;100.00
4449;BME280;2237;51.870;6.160;2023-05-12T09:16:00;101658.47;;;20.80;100.00
4449;BME280;2237;51.870;6.160;2023-05-12T09:18:56;101656.84;;;21.12;100.00
4449;BME280;2237;51.870;6.160;2023-05-12T09:21:23;101655.19;;;21.10;100.00
4449;BME280;2237;51.870;6.160;2023-05-12T09:24:00;101654.25;;;21.11;100.00
4449;BME280;2237;51.870;6.160;2023-05-12T09:26:45;101654.53;;;21.22;100.00
4449;BME280;2237;51.870;6.160;2023-05-12T09:29:12;101662.03;;;21.14;99.70
4449;BME280;2237;51.870;6.160;2023-05-12T09:31:54;101661.09;;;21.48;100.00
4449;BME280;2237;51.870;6.160;2023-05-12T09:36:56;101668.97;;;21.16;96.70
4449;BME280;2237;51.870;6.160;2023-05-12T09:39:23;101659.63;;;20.92;99.48
4449;BME280;2237;51.870;6.160;2023-05-12T09:41:50;101670.75;;;21.16;98.81
4449;BME280;2237;51.870;6.160;2023-05-12T09:44:20;101666.69;;;21.26;100.00
4449;BME280;2237;51.870;6.160;2023-05-12T09:46:47;101666.56;;;21.45;98.24
4449;BME280;2237;51.870;6.160;2023-05-12T09:49:18;101670.16;;;21.44;97.22
4449;BME280;2237;51.870;6.160;2023-05-12T09:51:44;101671.19;;;21.57;97.76
4449;BME280;2237;51.870;6.160;2023-05-12T09:54:11;101673.84;;;21.72;97.02
4449;BME280;2237;51.870;6.160;2023-05-12T09:56:37;101670.06;;;21.93;93.30
4449;BME280;2237;51.870;6.160;2023-05-12T09:59:05;101666.72;;;22.06;90.95
4449;BME280;2237;51.870;6.160;2023-05-12T10:01:32;101674.88;;;22.32;87.85
4449;BME280;2237;51.870;6.160;2023-05-12T10:04:00;101682.59;;;22.37;82.76
4449;BME280;2237;51.870;6.160;2023-05-12T10:06:29;101678.31;;;22.19;86.11
4449;BME280;2237;51.870;6.160;2023-05-12T10:11:45;101678.41;;;22.63;81.75
4449;BME280;2237;51.870;6.160;2023-05-12T10:14:12;101675.34;;;22.84;82.34
4449;BME280;2237;51.870;6.160;2023-05-12T10:16:40;101668.53;;;22.80;83.03
4449;BME280;2237;51.870;6.160;2023-05-12T10:19:07;101665.50;;;22.72;80.56
4449;BME280;2237;51.870;6.160;2023-05-12T10:21:35;101688.53;;;22.56;80.90
4449;BME280;2237;51.870;6.160;2023-05-12T10:24:03;101673.06;;;22.78;80.96
4449;BME280;2237;51.870;6.160;2023-05-12T10:26:31;101682.91;;;23.06;78.10
4449;BME280;2237;51.870;6.160;2023-05-12T10:28:58;101677.25;;;23.40;77.10
4449;BME280;2237;51.870;6.160;2023-05-12T10:31:25;101672.22;;;23.50;72.51
4449;BME280;2237;51.870;6.160;2023-05-12T10:34:00;101673.63;;;23.27;72.37
4449;BME280;2237;51.870;6.160;2023-05-12T10:36:27;101678.66;;;23.46;69.53
4449;BME280;2237;51.870;6.160;2023-05-12T10:38:54;101678.66;;;23.46;69.16
4449;BME280;2237;51.870;6.160;2023-05-12T10:41:29;101686.84;;;23.71;68.61
4449;BME280;2237;51.870;6.160;2023-05-12T10:43:56;101676.59;;;23.65;67.05
4449;BME280;2237;51.870;6.160;2023-05-12T10:46:23;101683.88;;;23.33;66.40
4449;BME280;2237;51.870;6.160;2023-05-12T10:48:52;101679.38;;;23.05;68.61
4449;BME280;2237;51.870;6.160;2023-05-12T10:51:31;101682.59;;;23.11;72.01
4449;BME280;2237;51.870;6.160;2023-05-12T10:54:04;101675.13;;;23.03;74.04
4449;BME280;2237;51.870;6.160;2023-05-12T10:59:24;101661.34;;;23.11;71.68
4449;BME280;2237;51.870;6.160;2023-05-12T11:04:39;101676.38;;;23.54;65.58
4449;BME280;2237;51.870;6.160;2023-05-12T11:07:08;101685.13;;;23.56;64.55
4449;BME280;2237;51.870;6.160;2023-05-12T11:09:37;101675.34;;;23.97;62.61
4449;BME280;2237;51.870;6.160;2023-05-12T11:12:18;101678.13;;;23.96;60.89
4449;BME280;2237;51.870;6.160;2023-05-12T11:14:45;101682.53;;;24.09;61.40
4449;BME280;2237;51.870;6.160;2023-05-12T11:17:12;101677.31;;;24.22;58.75
4449;BME280;2237;51.870;6.160;2023-05-12T11:19:45;101680.31;;;24.57;59.51
4449;BME280;2237;51.870;6.160;2023-05-12T11:22:16;101680.84;;;25.01;58.93
4449;BME280;2237;51.870;6.160;2023-05-12T11:24:43;101682.31;;;25.05;55.51
4449;BME280;2237;51.870;6.160;2023-05-12T11:27:17;101681.88;;;24.86;55.79
4449;BME280;2237;51.870;6.160;2023-05-12T11:29:44;101680.56;;;24.40;53.03
4449;BME280;2237;51.870;6.160;2023-05-12T11:34:40;101687.25;;;24.06;57.11
4449;BME280;2237;51.870;6.160;2023-05-12T11:37:07;101685.38;;;24.35;58.16
4449;BME280;2237;51.870;6.160;2023-05-12T11:39:34;101687.56;;;24.55;56.49
4449;BME280;2237;51.870;6.160;2023-05-12T11:42:03;101691.91;;;24.95;55.83
4449;BME280;2237;51.870;6.160;2023-05-12T11:44:48;101683.16;;;25.31;53.51
4449;BME280;2237;51.870;6.160;2023-05-12T11:47:18;101682.00;;;25.10;50.94
4449;BME280;2237;51.870;6.160;2023-05-12T11:49:52;101683.38;;;25.41;52.58
4449;BME280;2237;51.870;6.160;2023-05-12T11:52:23;101682.09;;;25.46;51.20
4449;BME280;2237;51.870;6.160;2023-05-12T11:54:57;101686.91;;;25.28;52.30
4449;BME280;2237;51.870;6.160;2023-05-12T11:57:31;101681.47;;;25.55;52.01
4449;BME280;2237;51.870;6.160;2023-05-12T12:00:01;101682.69;;;25.75;51.52
4449;BME280;2237;51.870;6.160;2023-05-12T12:02:27;101690.09;;;26.08;49.93
4449;BME280;2237;51.870;6.160;2023-05-12T12:04:54;101680.75;;;26.26;48.52
4449;BME280;2237;51.870;6.160;2023-05-12T12:07:32;101681.97;;;26.57;48.25
4449;BME280;2237;51.870;6.160;2023-05-12T12:10:17;101686.25;;;27.05;47.59
4449;BME280;2237;51.870;6.160;2023-05-12T12:12:44;101685.06;;;27.31;45.25
4449;BME280;2237;51.870;6.160;2023-05-12T12:15:11;101693.63;;;27.59;45.11
4449;BME280;2237;51.870;6.160;2023-05-12T12:17:38;101694.47;;;27.70;42.88
4449;BME280;2237;51.870;6.160;2023-05-12T12:20:06;101690.19;;;27.79;42.85
4449;BME280;2237;51.870;6.160;2023-05-12T12:22:33;101690.38;;;28.20;42.52
4449;BME280;2237;51.870;6.160;2023-05-12T12:25:00;101698.84;;;27.71;41.43
4449;BME280;2237;51.870;6.160;2023-05-12T12:27:27;101694.19;;;27.95;41.98
4449;BME280;2237;51.870;6.160;2023-05-12T12:29:53;101702.69;;;27.89;41.51
4449;BME280;2237;51.870;6.160;2023-05-12T12:32:20;101707.00;;;27.70;42.43
4449;BME280;2237;51.870;6.160;2023-05-12T12:34:46;101702.94;;;27.86;42.00
4449;BME280;2237;51.870;6.160;2023-05-12T12:37:14;101697.69;;;28.18;41.16
4449;BME280;2237;51.870;6.160;2023-05-12T12:39:41;101695.84;;;28.50;41.74
4449;BME280;2237;51.870;6.160;2023-05-12T12:42:07;101698.09;;;28.98;39.98
4449;BME280;2237;51.870;6.160;2023-05-12T12:44:33;101692.38;;;28.91;39.12
4449;BME280;2237;51.870;6.160;2023-05-12T12:47:00;101705.53;;;28.94;38.76
4449;BME280;2237;51.870;6.160;2023-05-12T12:49:27;101700.59;;;29.20;37.33
4449;BME280;2237;51.870;6.160;2023-05-12T12:51:53;101694.75;;;29.56;37.19
4449;BME280;2237;51.870;6.160;2023-05-12T12:54:20;101700.94;;;29.87;37.03
4449;BME280;2237;51.870;6.160;2023-05-12T12:56:46;101702.50;;;29.90;37.37
4449;BME280;2237;51.870;6.160;2023-05-12T12:59:13;101709.34;;;30.03;37.28
4449;BME280;2237;51.870;6.160;2023-05-12T13:01:40;101703.63;;;29.47;37.58
4449;BME280;2237;51.870;6.160;2023-05-12T13:04:06;101708.53;;;29.42;38.83
4449;BME280;2237;51.870;6.160;2023-05-12T13:06:32;101700.50;;;29.42;37.15
4449;BME280;2237;51.870;6.160;2023-05-12T13:08:59;101709.59;;;29.60;37.36
4449;BME280;2237;51.870;6.160;2023-05-12T13:11:26;101701.69;;;29.89;36.20
4449;BME280;2237;51.870;6.160;2023-05-12T13:13:53;101696.47;;;30.07;36.50
4449;BME280;2237;51.870;6.160;2023-05-12T13:16:19;101702.09;;;29.54;36.29
4449;BME280;2237;51.870;6.160;2023-05-12T13:18:46;101701.63;;;29.80;36.61
4449;BME280;2237;51.870;6.160;2023-05-12T13:21:12;101700.56;;;30.01;36.36
4449;BME280;2237;51.870;6.160;2023-05-12T13:23:39;101696.16;;;29.91;35.20
4449;BME280;2237;51.870;6.160;2023-05-12T13:26:05;101698.28;;;29.57;35.31
4449;BME280;2237;51.870;6.160;2023-05-12T13:28:31;101696.84;;;29.93;35.28
4449;BME280;2237;51.870;6.160;2023-05-12T13:30:58;101695.06;;;30.22;34.50
4449;BME280;2237;51.870;6.160;2023-05-12T13:33:24;101689.91;;;30.49;34.07
4449;BME280;2237;51.870;6.160;2023-05-12T13:35:50;101693.41;;;30.98;33.93
4449;BME280;2237;51.870;6.160;2023-05-12T13:38:17;101691.69;;;31.53;33.19
4449;BME280;2237;51.870;6.160;2023-05-12T13:40:44;101691.19;;;32.21;32.08
4449;BME280;2237;51.870;6.160;2023-05-12T13:43:11;101693.09;;;32.47;31.68
4449;BME280;2237;51.870;6.160;2023-05-12T13:45:38;101688.56;;;33.34;29.90
4449;BME280;2237;51.870;6.160;2023-05-12T13:48:04;101691.06;;;33.61;29.74
4449;BME280;2237;51.870;6.160;2023-05-12T13:50:31;101690.84;;;34.79;28.61
4449;BME280;2237;51.870;6.160;2023-05-12T13:52:59;101679.28;;;37.81;25.66
4449;BME280;2237;51.870;6.160;2023-05-12T13:55:25;101658.72;;;41.90;20.89
4449;BME280;2237;51.870;6.160;2023-05-12T13:57:52;101650.16;;;44.24;18.08
4449;BME280;2237;51.870;6.160;2023-05-12T14:00:18;101649.22;;;43.41;18.36
4449;BME280;2237;51.870;6.160;2023-05-12T14:02:45;101650.84;;;44.72;16.76
4449;BME280;2237;51.870;6.160;2023-05-12T14:05:12;101638.97;;;48.22;15.12
4449;BME280;2237;51.870;6.160;2023-05-12T14:07:38;101648.00;;;47.58;15.13
4449;BME280;2237;51.870;6.160;2023-05-12T14:10:05;101650.91;;;46.37;15.12
4449;BME280;2237;51.870;6.160;2023-05-12T14:12:31;101637.41;;;44.87;15.40
4449;BME280;2237;51.870;6.160;2023-05-12T14:14:58;101635.19;;;43.30;16.75
4449;BME280;2237;51.870;6.160;2023-05-12T14:17:45;101634.16;;;45.93;15.42
4449;BME280;2237;51.870;6.160;2023-05-12T14:20:11;101622.38;;;49.72;12.25
4449;BME280;2237;51.870;6.160;2023-05-12T14:22:38;101625.81;;;52.70;11.41
4449;BME280;2237;51.870;6.160;2023-05-12T14:25:04;101606.44;;;55.28;10.36
4449;BME280;2237;51.870;6.160;2023-05-12T14:27:33;101606.03;;;55.57;8.77
4449;BME280;2237;51.870;6.160;2023-05-12T14:29:59;101604.47;;;54.33;9.42
4449;BME280;2237;51.870;6.160;2023-05-12T14:32:25;101593.84;;;50.48;10.98
4449;BME280;2237;51.870;6.160;2023-05-12T14:34:52;101597.41;;;52.44;10.66
4449;BME280;2237;51.870;6.160;2023-05-12T14:37:18;101591.09;;;49.77;11.67
4449;BME280;2237;51.870;6.160;2023-05-12T14:39:45;101598.75;;;49.50;11.73
4449;BME280;2237;51.870;6.160;2023-05-12T14:42:11;101583.06;;;46.69;13.23
4449;BME280;2237;51.870;6.160;2023-05-12T14:44:37;101578.88;;;44.40;14.78
4449;BME280;2237;51.870;6.160;2023-05-12T14:47:04;101579.88;;;48.28;12.65
4449;BME280;2237;51.870;6.160;2023-05-12T14:49:33;101583.91;;;48.52;11.92
4449;BME280;2237;51.870;6.160;2023-05-12T14:52:00;101593.16;;;43.48;14.75
4449;BME280;2237;51.870;6.160;2023-05-12T14:54:27;101594.13;;;38.44;19.53
4449;BME280;2237;51.870;6.160;2023-05-12T14:56:53;101600.75;;;35.56;23.00
4449;BME280;2237;51.870;6.160;2023-05-12T14:59:19;101613.50;;;33.12;26.33
4449;BME280;2237;51.870;6.160;2023-05-12T15:01:46;101618.59;;;31.48;27.89
4449;BME280;2237;51.870;6.160;2023-05-12T15:04:12;101629.03;;;30.19;30.29
4449;BME280;2237;51.870;6.160;2023-05-12T15:06:38;101628.66;;;29.25;31.22
4449;BME280;2237;51.870;6.160;2023-05-12T15:09:05;101627.22;;;28.70;32.92
4449;BME280;2237;51.870;6.160;2023-05-12T15:11:32;101628.47;;;28.55;33.85
4449;BME280;2237;51.870;6.160;2023-05-12T15:13:58;101625.06;;;28.32;34.70
4449;BME280;2237;51.870;6.160;2023-05-12T15:16:25;101631.22;;;28.01;35.28
4449;BME280;2237;51.870;6.160;2023-05-12T15:18:53;101628.88;;;28.19;35.61
4449;BME280;2237;51.870;6.160;2023-05-12T15:21:19;101626.56;;;27.82;36.58
4449;BME280;2237;51.870;6.160;2023-05-12T15:23:46;101620.84;;;27.76;35.80
4449;BME280;2237;51.870;6.160;2023-05-12T15:26:12;101630.09;;;27.83;36.01
4449;BME280;2237;51.870;6.160;2023-05-12T15:28:58;101641.88;;;27.69;37.40
4449;BME280;2237;51.870;6.160;2023-05-12T15:31:27;101656.03;;;27.71;36.96
4449;BME280;2237;51.870;6.160;2023-05-12T15:33:55;101646.88;;;27.74;37.15
4449;BME280;2237;51.870;6.160;2023-05-12T15:36:21;101651.59;;;27.81;36.99
4449;BME280;2237;51.870;6.160;2023-05-12T15:38:48;101661.91;;;28.92;34.20
4449;BME280;2237;51.870;6.160;2023-05-12T15:41:14;101657.06;;;28.86;33.45
4449;BME280;2237;51.870;6.160;2023-05-12T15:43:40;101661.94;;;28.40;33.45
4449;BME280;2237;51.870;6.160;2023-05-12T15:46:07;101661.88;;;28.19;33.99
4449;BME280;2237;51.870;6.160;2023-05-12T15:48:36;101658.28;;;27.87;34.51
4449;BME280;2237;51.870;6.160;2023-05-12T15:51:02;101657.22;;;27.78;35.14
4449;BME280;2237;51.870;6.160;2023-05-12T15:53:29;101661.50;;;27.70;35.45
4449;BME280;2237;51.870;6.160;2023-05-12T15:56:00;101666.25;;;27.77;34.55
4449;BME280;2237;51.870;6.160;2023-05-12T15:58:27;101659.19;;;27.65;35.42
4449;BME280;2237;51.870;6.160;2023-05-12T16:00:56;101670.75;;;27.55;36.07
4449;BME280;2237;51.870;6.160;2023-05-12T16:03:22;101673.44;;;27.43;35.63
4449;BME280;2237;51.870;6.160;2023-05-12T16:05:49;101663.66;;;27.31;36.29
4449;BME280;2237;51.870;6.160;2023-05-12T16:08:15;101670.00;;;27.30;37.02
4449;BME280;2237;51.870;6.160;2023-05-12T16:10:42;101671.06;;;27.06;37.21
4449;BME280;2237;51.870;6.160;2023-05-12T16:13:08;101684.19;;;26.98;37.28
4449;BME280;2237;51.870;6.160;2023-05-12T16:15:34;101680.13;;;26.81;37.37
4449;BME280;2237;51.870;6.160;2023-05-12T16:18:01;101680.16;;;26.33;37.35
4449;BME280;2237;51.870;6.160;2023-05-12T16:20:28;101674.19;;;26.06;38.26
4449;BME280;2237;51.870;6.160;2023-05-12T16:22:54;101675.59;;;25.99;38.63
4449;BME280;2237;51.870;6.160;2023-05-12T16:25:21;101674.16;;;25.82;39.95
4449;BME280;2237;51.870;6.160;2023-05-12T16:27:48;101669.69;;;25.83;40.16
4449;BME280;2237;51.870;6.160;2023-05-12T16:30:14;101663.88;;;25.89;40.41
4449;BME280;2237;51.870;6.160;2023-05-12T16:32:44;101674.84;;;25.61;41.09
4449;BME280;2237;51.870;6.160;2023-05-12T16:35:12;101675.06;;;25.45;41.13
4449;BME280;2237;51.870;6.160;2023-05-12T16:37:38;101675.72;;;25.36;41.72
4449;BME280;2237;51.870;6.160;2023-05-12T16:40:05;101683.41;;;25.53;41.83
4449;BME280;2237;51.870;6.160;2023-05-12T16:42:31;101681.59;;;25.54;42.00
4449;BME280;2237;51.870;6.160;2023-05-12T16:44:58;101685.94;;;25.55;41.64
4449;BME280;2237;51.870;6.160;2023-05-12T16:47:24;101682.94;;;25.47;41.24
4449;BME280;2237;51.870;6.160;2023-05-12T16:49:54;101679.13;;;25.13;41.44
4449;BME280;2237;51.870;6.160;2023-05-12T16:52:20;101681.06;;;24.98;41.96
4449;BME280;2237;51.870;6.160;2023-05-12T16:54:47;101674.25;;;24.67;42.29
4449;BME280;2237;51.870;6.160;2023-05-12T16:57:14;101696.16;;;24.58;43.56
4449;BME280;2237;51.870;6.160;2023-05-12T16:59:40;101685.84;;;24.54;44.15
4449;BME280;2237;51.870;6.160;2023-05-12T17:02:07;101698.91;;;24.44;44.69
4449;BME280;2237;51.870;6.160;2023-05-12T17:04:33;101688.03;;;24.47;46.01
4449;BME280;2237;51.870;6.160;2023-05-12T17:07:00;101684.13;;;24.53;46.09
4449;BME280;2237;51.870;6.160;2023-05-12T17:09:26;101689.44;;;24.40;45.90
4449;BME280;2237;51.870;6.160;2023-05-12T17:11:52;101692.81;;;24.15;46.67
4449;BME280;2237;51.870;6.160;2023-05-12T17:14:19;101697.00;;;24.20;47.73
4449;BME280;2237;51.870;6.160;2023-05-12T17:16:46;101696.00;;;24.35;49.07
4449;BME280;2237;51.870;6.160;2023-05-12T17:19:12;101695.38;;;24.44;48.17
4449;BME280;2237;51.870;6.160;2023-05-12T17:21:40;101700.56;;;24.59;47.33
4449;BME280;2237;51.870;6.160;2023-05-12T17:24:07;101713.13;;;24.70;47.56
4449;BME280;2237;51.870;6.160;2023-05-12T17:26:34;101720.63;;;24.78;48.03
4449;BME280;2237;51.870;6.160;2023-05-12T17:29:01;101720.06;;;24.60;46.97
4449;BME280;2237;51.870;6.160;2023-05-12T17:31:27;101718.66;;;24.67;47.31
4449;BME280;2237;51.870;6.160;2023-05-12T17:33:54;101716.25;;;24.64;47.57
4449;BME280;2237;51.870;6.160;2023-05-12T17:36:20;101715.00;;;24.43;46.75
4449;BME280;2237;51.870;6.160;2023-05-12T17:38:49;101722.44;;;24.38;47.23
4449;BME280;2237;51.870;6.160;2023-05-12T17:41:17;101725.25;;;24.49;49.00
4449;BME280;2237;51.870;6.160;2023-05-12T17:43:43;101721.19;;;24.43;52.80
4449;BME280;2237;51.870;6.160;2023-05-12T17:46:10;101725.09;;;24.38;56.06
4449;BME280;2237;51.870;6.160;2023-05-12T17:48:36;101724.31;;;24.36;56.14
4449;BME280;2237;51.870;6.160;2023-05-12T17:51:04;101722.84;;;24.32;57.71
4449;BME280;2237;51.870;6.160;2023-05-12T17:53:31;101726.28;;;24.20;57.32
4449;BME280;2237;51.870;6.160;2023-05-12T17:55:58;101725.31;;;24.21;57.59
4449;BME280;2237;51.870;6.160;2023-05-12T17:58:24;101733.69;;;24.00;58.71
4449;BME280;2237;51.870;6.160;2023-05-12T18:00:51;101733.28;;;23.80;61.04
4449;BME280;2237;51.870;6.160;2023-05-12T18:03:17;101734.84;;;23.26;67.02
4449;BME280;2237;51.870;6.160;2023-05-12T18:05:49;101730.25;;;23.14;69.09
4449;BME280;2237;51.870;6.160;2023-05-12T18:08:17;101742.06;;;23.24;69.10
4449;BME280;2237;51.870;6.160;2023-05-12T18:10:44;101744.72;;;23.24;69.30
4449;BME280;2237;51.870;6.160;2023-05-12T18:13:10;101747.38;;;23.24;68.44
4449;BME280;2237;51.870;6.160;2023-05-12T18:15:37;101750.88;;;23.10;68.56
4449;BME280;2237;51.870;6.160;2023-05-12T18:18:03;101752.84;;;23.06;69.76
4449;BME280;2237;51.870;6.160;2023-05-12T18:20:30;101754.34;;;23.11;70.21
4449;BME280;2237;51.870;6.160;2023-05-12T18:22:56;101749.41;;;23.04;71.48
4449;BME280;2237;51.870;6.160;2023-05-12T18:25:23;101754.69;;;22.90;72.51
4449;BME280;2237;51.870;6.160;2023-05-12T18:27:49;101749.09;;;22.81;73.67
4449;BME280;2237;51.870;6.160;2023-05-12T18:30:15;101745.22;;;22.71;73.35
4449;BME280;2237;51.870;6.160;2023-05-12T18:32:42;101751.31;;;22.57;75.41
4449;BME280;2237;51.870;6.160;2023-05-12T18:35:08;101750.63;;;22.53;75.59
4449;BME280;2237;51.870;6.160;2023-05-12T18:37:35;101741.03;;;22.51;77.58
4449;BME280;2237;51.870;6.160;2023-05-12T18:40:01;101732.75;;;22.41;77.89